Terminal Aerodrome Forecast
Issued by NWS

Home | Current Version | Previous Version | Text Only | Print | Product List | Glossary On
Versions: 1 2 3 4 5 6 7 8 9 10 11 12
000
FTUS46 KSEW 270500
TAFBLI
TAF
KBLI 270532Z 2706/2806 00000KT P6SM OVC040
     FM270900 15004KT P6SM -RA OVC025
      TEMPO 2716/2720 4SM -RA BR OVC015
     FM280000 19008KT P6SM -SHRA BKN022 OVC040=

USA.gov is the U.S. government's official web portal to all federal, state and local government web resources and services.